sensor_id;sensor_type;location;lat;lon;timestamp;pressure;altitude;pressure_sealevel;temperature;humidity
70544;BME280;58097;48.364;-1.224;2023-01-06T00:00:21;100251.91;;;10.49;96.77
70544;BME280;58097;48.364;-1.224;2023-01-06T00:02:46;100250.72;;;10.51;96.73
70544;BME280;58097;48.364;-1.224;2023-01-06T00:05:12;100235.88;;;10.52;96.49
70544;BME280;58097;48.364;-1.224;2023-01-06T00:07:38;100241.97;;;10.56;96.60
70544;BME280;58097;48.364;-1.224;2023-01-06T00:10:04;100230.91;;;10.56;96.52
70544;BME280;58097;48.364;-1.224;2023-01-06T00:12:29;100229.78;;;10.49;95.96
70544;BME280;58097;48.364;-1.224;2023-01-06T00:14:55;100234.59;;;10.47;95.59
70544;BME280;58097;48.364;-1.224;2023-01-06T00:17:20;100234.75;;;10.45;96.53
70544;BME280;58097;48.364;-1.224;2023-01-06T00:19:46;100230.81;;;10.48;96.64
70544;BME280;58097;48.364;-1.224;2023-01-06T00:22:11;100224.41;;;10.47;96.72
70544;BME280;58097;48.364;-1.224;2023-01-06T00:24:37;100222.53;;;10.48;96.64
70544;BME280;58097;48.364;-1.224;2023-01-06T00:27:02;100204.06;;;10.48;96.65
70544;BME280;58097;48.364;-1.224;2023-01-06T00:29:27;100200.41;;;10.48;96.89
70544;BME280;58097;48.364;-1.224;2023-01-06T00:31:53;100192.13;;;10.48;97.06
70544;BME280;58097;48.364;-1.224;2023-01-06T00:34:18;100213.53;;;10.46;96.58
70544;BME280;58097;48.364;-1.224;2023-01-06T00:36:44;100208.16;;;10.44;96.69
70544;BME280;58097;48.364;-1.224;2023-01-06T00:39:12;100212.53;;;10.37;96.89
70544;BME280;58097;48.364;-1.224;2023-01-06T00:41:39;100208.03;;;10.36;97.09
70544;BME280;58097;48.364;-1.224;2023-01-06T00:44:23;100212.69;;;10.36;97.59
70544;BME280;58097;48.364;-1.224;2023-01-06T00:46:48;100205.81;;;10.40;97.83
70544;BME280;58097;48.364;-1.224;2023-01-06T00:49:14;100211.22;;;10.41;97.76
70544;BME280;58097;48.364;-1.224;2023-01-06T00:51:39;100205.53;;;10.43;97.72
70544;BME280;58097;48.364;-1.224;2023-01-06T00:54:06;100199.31;;;10.41;97.84
70544;BME280;58097;48.364;-1.224;2023-01-06T00:56:35;100206.56;;;10.42;97.56
70544;BME280;58097;48.364;-1.224;2023-01-06T00:59:01;100207.44;;;10.42;97.47
70544;BME280;58097;48.364;-1.224;2023-01-06T01:01:27;100226.19;;;10.39;97.13
70544;BME280;58097;48.364;-1.224;2023-01-06T01:03:52;100217.47;;;10.34;97.26
70544;BME280;58097;48.364;-1.224;2023-01-06T01:06:17;100209.50;;;10.31;97.39
70544;BME280;58097;48.364;-1.224;2023-01-06T01:08:43;100208.78;;;10.29;97.04
70544;BME280;58097;48.364;-1.224;2023-01-06T01:11:10;100213.00;;;10.33;97.94
70544;BME280;58097;48.364;-1.224;2023-01-06T01:13:56;100210.94;;;10.35;98.16
70544;BME280;58097;48.364;-1.224;2023-01-06T01:16:21;100220.97;;;10.36;97.95
70544;BME280;58097;48.364;-1.224;2023-01-06T01:18:46;100214.56;;;10.35;98.05
70544;BME280;58097;48.364;-1.224;2023-01-06T01:21:12;100210.63;;;10.38;98.02
70544;BME280;58097;48.364;-1.224;2023-01-06T01:23:37;100202.34;;;10.38;98.16
70544;BME280;58097;48.364;-1.224;2023-01-06T01:26:02;100197.84;;;10.37;97.50
70544;BME280;58097;48.364;-1.224;2023-01-06T01:28:28;100201.94;;;10.33;97.33
70544;BME280;58097;48.364;-1.224;2023-01-06T01:31:00;100198.78;;;10.28;96.72
70544;BME280;58097;48.364;-1.224;2023-01-06T01:33:28;100182.94;;;10.20;97.17
70544;BME280;58097;48.364;-1.224;2023-01-06T01:35:53;100190.50;;;10.18;97.14
70544;BME280;58097;48.364;-1.224;2023-01-06T01:38:19;100185.84;;;10.18;97.69
70544;BME280;58097;48.364;-1.224;2023-01-06T01:40:48;100176.53;;;10.19;98.01
70544;BME280;58097;48.364;-1.224;2023-01-06T01:43:14;100172.63;;;10.22;98.19
70544;BME280;58097;48.364;-1.224;2023-01-06T01:45:40;100176.25;;;10.22;98.06
70544;BME280;58097;48.364;-1.224;2023-01-06T01:48:33;100170.59;;;10.24;97.93
70544;BME280;58097;48.364;-1.224;2023-01-06T01:51:02;100159.22;;;10.27;98.14
70544;BME280;58097;48.364;-1.224;2023-01-06T01:53:33;100173.03;;;10.27;97.90
70544;BME280;58097;48.364;-1.224;2023-01-06T01:56:03;100170.03;;;10.20;97.21
70544;BME280;58097;48.364;-1.224;2023-01-06T01:58:39;100156.66;;;10.16;97.04
70544;BME280;58097;48.364;-1.224;2023-01-06T02:01:08;100158.69;;;10.14;97.41
70544;BME280;58097;48.364;-1.224;2023-01-06T02:03:35;100163.19;;;10.15;98.12
70544;BME280;58097;48.364;-1.224;2023-01-06T02:06:04;100156.22;;;10.20;98.32
70544;BME280;58097;48.364;-1.224;2023-01-06T02:08:36;100160.41;;;10.24;98.37
70544;BME280;58097;48.364;-1.224;2023-01-06T02:11:03;100166.34;;;10.30;98.46
70544;BME280;58097;48.364;-1.224;2023-01-06T02:13:31;100172.25;;;10.35;98.15
70544;BME280;58097;48.364;-1.224;2023-01-06T02:16:33;100157.72;;;10.33;98.24
70544;BME280;58097;48.364;-1.224;2023-01-06T02:19:10;100163.09;;;10.34;97.88
70544;BME280;58097;48.364;-1.224;2023-01-06T02:21:51;100168.31;;;10.37;97.59
70544;BME280;58097;48.364;-1.224;2023-01-06T02:27:23;100166.81;;;10.25;97.61
70544;BME280;58097;48.364;-1.224;2023-01-06T02:32:47;100162.31;;;10.24;97.89
70544;BME280;58097;48.364;-1.224;2023-01-06T02:35:36;100171.16;;;10.28;98.31
70544;BME280;58097;48.364;-1.224;2023-01-06T02:38:45;100174.94;;;10.27;98.56
70544;BME280;58097;48.364;-1.224;2023-01-06T02:42:09;100171.41;;;10.34;98.37
70544;BME280;58097;48.364;-1.224;2023-01-06T02:44:50;100161.94;;;10.37;98.37
70544;BME280;58097;48.364;-1.224;2023-01-06T02:47:42;100166.88;;;10.33;98.48
70544;BME280;58097;48.364;-1.224;2023-01-06T02:55:28;100157.34;;;10.28;97.62
70544;BME280;58097;48.364;-1.224;2023-01-06T03:00:42;100141.47;;;10.30;98.58
70544;BME280;58097;48.364;-1.224;2023-01-06T03:03:14;100143.94;;;10.33;98.90
70544;BME280;58097;48.364;-1.224;2023-01-06T03:05:43;100136.50;;;10.33;99.02
70544;BME280;58097;48.364;-1.224;2023-01-06T03:08:23;100127.19;;;10.34;99.21
70544;BME280;58097;48.364;-1.224;2023-01-06T03:10:51;100131.53;;;10.37;99.15
70544;BME280;58097;48.364;-1.224;2023-01-06T03:13:28;100128.78;;;10.37;99.27
70544;BME280;58097;48.364;-1.224;2023-01-06T03:15:57;100129.25;;;10.32;98.63
70544;BME280;58097;48.364;-1.224;2023-01-06T03:18:23;100128.53;;;10.30;98.58
70544;BME280;58097;48.364;-1.224;2023-01-06T03:20:49;100133.50;;;10.27;98.09
70544;BME280;58097;48.364;-1.224;2023-01-06T03:23:18;100130.34;;;10.21;98.21
70544;BME280;58097;48.364;-1.224;2023-01-06T03:25:43;100129.47;;;10.21;98.45
70544;BME280;58097;48.364;-1.224;2023-01-06T03:28:08;100122.16;;;10.20;98.67
70544;BME280;58097;48.364;-1.224;2023-01-06T03:30:41;100117.81;;;10.17;98.71
70544;BME280;58097;48.364;-1.224;2023-01-06T03:33:21;100120.59;;;10.17;98.87
70544;BME280;58097;48.364;-1.224;2023-01-06T03:41:18;100103.16;;;10.17;98.89
70544;BME280;58097;48.364;-1.224;2023-01-06T03:44:08;100101.41;;;10.16;99.19
70544;BME280;58097;48.364;-1.224;2023-01-06T03:46:43;100102.28;;;10.16;99.00
70544;BME280;58097;48.364;-1.224;2023-01-06T03:49:18;100099.53;;;10.16;99.21
70544;BME280;58097;48.364;-1.224;2023-01-06T03:51:51;100094.00;;;10.16;99.66
70544;BME280;58097;48.364;-1.224;2023-01-06T03:54:41;100082.78;;;10.18;99.72
70544;BME280;58097;48.364;-1.224;2023-01-06T03:57:20;100089.78;;;10.22;100.00
70544;BME280;58097;48.364;-1.224;2023-01-06T03:59:56;100091.34;;;10.24;99.64
70544;BME280;58097;48.364;-1.224;2023-01-06T04:02:23;100100.34;;;10.27;99.92
70544;BME280;58097;48.364;-1.224;2023-01-06T04:05:06;100092.22;;;10.25;99.88
70544;BME280;58097;48.364;-1.224;2023-01-06T04:07:33;100093.09;;;10.26;99.77
70544;BME280;58097;48.364;-1.224;2023-01-06T04:09:58;100104.53;;;10.31;99.79
70544;BME280;58097;48.364;-1.224;2023-01-06T04:12:23;100099.16;;;10.29;99.99
70544;BME280;58097;48.364;-1.224;2023-01-06T04:15:09;100091.59;;;10.31;99.90
70544;BME280;58097;48.364;-1.224;2023-01-06T04:17:36;100094.34;;;10.31;99.98
70544;BME280;58097;48.364;-1.224;2023-01-06T04:20:02;100089.53;;;10.33;99.83
70544;BME280;58097;48.364;-1.224;2023-01-06T04:22:28;100096.81;;;10.34;100.00
70544;BME280;58097;48.364;-1.224;2023-01-06T04:24:53;100095.78;;;10.35;100.00
70544;BME280;58097;48.364;-1.224;2023-01-06T04:27:19;100092.00;;;10.36;99.85
70544;BME280;58097;48.364;-1.224;2023-01-06T04:29:44;100086.47;;;10.36;100.00
70544;BME280;58097;48.364;-1.224;2023-01-06T04:32:09;100087.88;;;10.40;100.00
70544;BME280;58097;48.364;-1.224;2023-01-06T04:34:35;100086.03;;;10.41;99.94
70544;BME280;58097;48.364;-1.224;2023-01-06T04:37:00;100080.94;;;10.36;99.38
70544;BME280;58097;48.364;-1.224;2023-01-06T04:39:25;100092.00;;;10.36;100.00
70544;BME280;58097;48.364;-1.224;2023-01-06T04:41:51;100085.28;;;10.39;100.00
70544;BME280;58097;48.364;-1.224;2023-01-06T04:44:16;100075.97;;;10.40;100.00
70544;BME280;58097;48.364;-1.224;2023-01-06T04:46:42;100081.22;;;10.43;100.00
70544;BME280;58097;48.364;-1.224;2023-01-06T04:49:07;100074.66;;;10.44;100.00
70544;BME280;58097;48.364;-1.224;2023-01-06T04:51:33;100082.78;;;10.45;100.00
70544;BME280;58097;48.364;-1.224;2023-01-06T04:53:58;100076.25;;;10.46;99.83
70544;BME280;58097;48.364;-1.224;2023-01-06T04:56:24;100079.88;;;10.47;99.80
70544;BME280;58097;48.364;-1.224;2023-01-06T04:58:52;100077.75;;;10.41;99.52
70544;BME280;58097;48.364;-1.224;2023-01-06T05:01:19;100090.22;;;10.45;99.89
70544;BME280;58097;48.364;-1.224;2023-01-06T05:03:44;100085.41;;;10.47;99.94
70544;BME280;58097;48.364;-1.224;2023-01-06T05:06:11;100084.38;;;10.48;100.00
70544;BME280;58097;48.364;-1.224;2023-01-06T05:08:37;100085.25;;;10.48;100.00
70544;BME280;58097;48.364;-1.224;2023-01-06T05:11:12;100084.06;;;10.51;100.00
70544;BME280;58097;48.364;-1.224;2023-01-06T05:13:37;100083.03;;;10.52;100.00
70544;BME280;58097;48.364;-1.224;2023-01-06T05:16:07;100089.59;;;10.51;100.00
70544;BME280;58097;48.364;-1.224;2023-01-06T05:18:33;100083.81;;;10.44;99.31
70544;BME280;58097;48.364;-1.224;2023-01-06T05:20:59;100086.75;;;10.43;99.84
70544;BME280;58097;48.364;-1.224;2023-01-06T05:23:24;100085.72;;;10.44;100.00
70544;BME280;58097;48.364;-1.224;2023-01-06T05:25:50;100083.66;;;10.46;100.00
70544;BME280;58097;48.364;-1.224;2023-01-06T05:28:16;100084.38;;;10.48;100.00
70544;BME280;58097;48.364;-1.224;2023-01-06T05:30:42;100081.28;;;10.51;100.00
70544;BME280;58097;48.364;-1.224;2023-01-06T05:33:07;100084.22;;;10.49;100.00
70544;BME280;58097;48.364;-1.224;2023-01-06T05:35:33;100085.09;;;10.50;100.00
70544;BME280;58097;48.364;-1.224;2023-01-06T05:37:58;100079.56;;;10.50;99.88
70544;BME280;58097;48.364;-1.224;2023-01-06T05:40:24;100079.16;;;10.45;99.84
70544;BME280;58097;48.364;-1.224;2023-01-06T05:42:53;100082.78;;;10.45;99.92
70544;BME280;58097;48.364;-1.224;2023-01-06T05:45:19;100078.84;;;10.48;100.00
70544;BME280;58097;48.364;-1.224;2023-01-06T05:47:44;100078.69;;;10.49;100.00
70544;BME280;58097;48.364;-1.224;2023-01-06T05:50:10;100086.66;;;10.52;100.00
70544;BME280;58097;48.364;-1.224;2023-01-06T05:52:35;100087.38;;;10.54;100.00
70544;BME280;58097;48.364;-1.224;2023-01-06T05:55:00;100095.66;;;10.54;100.00
70544;BME280;58097;48.364;-1.224;2023-01-06T05:57:26;100092.03;;;10.54;100.00
70544;BME280;58097;48.364;-1.224;2023-01-06T05:59:51;100087.84;;;10.50;100.00
70544;BME280;58097;48.364;-1.224;2023-01-06T06:02:16;100086.44;;;10.46;100.00
70544;BME280;58097;48.364;-1.224;2023-01-06T06:04:42;100081.38;;;10.41;100.00
70544;BME280;58097;48.364;-1.224;2023-01-06T06:07:07;100084.13;;;10.41;100.00
70544;BME280;58097;48.364;-1.224;2023-01-06T06:09:33;100085.44;;;10.37;100.00
70544;BME280;58097;48.364;-1.224;2023-01-06T06:11:58;100083.38;;;10.39;100.00
70544;BME280;58097;48.364;-1.224;2023-01-06T06:14:23;100084.69;;;10.45;100.00
70544;BME280;58097;48.364;-1.224;2023-01-06T06:16:51;100084.38;;;10.48;100.00
70544;BME280;58097;48.364;-1.224;2023-01-06T06:19:17;100086.81;;;10.51;100.00
70544;BME280;58097;48.364;-1.224;2023-01-06T06:21:43;100086.50;;;10.54;100.00
70544;BME280;58097;48.364;-1.224;2023-01-06T06:24:08;100093.59;;;10.57;100.00
70544;BME280;58097;48.364;-1.224;2023-01-06T06:26:34;100092.41;;;10.59;100.00
70544;BME280;58097;48.364;-1.224;2023-01-06T06:28:59;100098.25;;;10.56;100.00
70544;BME280;58097;48.364;-1.224;2023-01-06T06:31:27;100086.50;;;10.54;100.00
70544;BME280;58097;48.364;-1.224;2023-01-06T06:33:55;100096.84;;;10.52;100.00
70544;BME280;58097;48.364;-1.224;2023-01-06T06:36:21;100096.13;;;10.50;100.00
70544;BME280;58097;48.364;-1.224;2023-01-06T06:38:48;100089.09;;;10.55;100.00
70544;BME280;58097;48.364;-1.224;2023-01-06T06:41:14;100098.81;;;10.60;100.00
70544;BME280;58097;48.364;-1.224;2023-01-06T06:43:40;100098.50;;;10.63;100.00
70544;BME280;58097;48.364;-1.224;2023-01-06T06:46:05;100099.38;;;10.63;100.00
70544;BME280;58097;48.364;-1.224;2023-01-06T06:48:31;100098.88;;;10.68;100.00
70544;BME280;58097;48.364;-1.224;2023-01-06T06:51:05;100096.13;;;10.68;100.00
70544;BME280;58097;48.364;-1.224;2023-01-06T06:53:32;100109.66;;;10.71;100.00
70544;BME280;58097;48.364;-1.224;2023-01-06T06:55:58;100097.47;;;10.64;100.00
70544;BME280;58097;48.364;-1.224;2023-01-06T06:58:24;100102.44;;;10.60;100.00
70544;BME280;58097;48.364;-1.224;2023-01-06T07:00:51;100100.00;;;10.57;100.00
70544;BME280;58097;48.364;-1.224;2023-01-06T07:03:16;100105.38;;;10.59;100.00
70544;BME280;58097;48.364;-1.224;2023-01-06T07:05:43;100103.16;;;10.62;100.00
70544;BME280;58097;48.364;-1.224;2023-01-06T07:08:10;100102.84;;;10.65;100.00
70544;BME280;58097;48.364;-1.224;2023-01-06T07:10:35;100113.75;;;10.67;100.00
70544;BME280;58097;48.364;-1.224;2023-01-06T07:13:01;100113.28;;;10.71;100.00
70544;BME280;58097;48.364;-1.224;2023-01-06T07:15:26;100114.16;;;10.72;100.00
70544;BME280;58097;48.364;-1.224;2023-01-06T07:17:52;100110.22;;;10.74;100.00
70544;BME280;58097;48.364;-1.224;2023-01-06T07:20:17;100107.75;;;10.71;100.00
70544;BME280;58097;48.364;-1.224;2023-01-06T07:22:43;100113.03;;;10.65;100.00
70544;BME280;58097;48.364;-1.224;2023-01-06T07:25:09;100111.44;;;10.62;100.00
70544;BME280;58097;48.364;-1.224;2023-01-06T07:27:34;100116.97;;;10.62;100.00
70544;BME280;58097;48.364;-1.224;2023-01-06T07:30:00;100113.75;;;10.67;100.00
70544;BME280;58097;48.364;-1.224;2023-01-06T07:32:26;100122.44;;;10.72;100.00
70544;BME280;58097;48.364;-1.224;2023-01-06T07:34:51;100125.59;;;10.77;100.00
70544;BME280;58097;48.364;-1.224;2023-01-06T07:37:17;100129.09;;;10.79;100.00
70544;BME280;58097;48.364;-1.224;2023-01-06T07:39:42;100119.59;;;10.81;100.00
70544;BME280;58097;48.364;-1.224;2023-01-06T07:42:08;100128.75;;;10.82;100.00
70544;BME280;58097;48.364;-1.224;2023-01-06T07:44:34;100123.78;;;10.85;100.00
70544;BME280;58097;48.364;-1.224;2023-01-06T07:47:00;100123.41;;;10.80;100.00
70544;BME280;58097;48.364;-1.224;2023-01-06T07:49:25;100118.19;;;10.77;100.00
70544;BME280;58097;48.364;-1.224;2023-01-06T07:51:50;100111.25;;;10.73;100.00
70544;BME280;58097;48.364;-1.224;2023-01-06T07:54:16;100114.72;;;10.75;100.00
70544;BME280;58097;48.364;-1.224;2023-01-06T07:56:41;100119.06;;;10.78;100.00
70544;BME280;58097;48.364;-1.224;2023-01-06T07:59:08;100118.41;;;10.84;100.00
70544;BME280;58097;48.364;-1.224;2023-01-06T08:01:33;100115.16;;;10.89;100.00
70544;BME280;58097;48.364;-1.224;2023-01-06T08:03:59;100123.16;;;10.92;100.00
70544;BME280;58097;48.364;-1.224;2023-01-06T08:06:24;100117.44;;;10.93;100.00
70544;BME280;58097;48.364;-1.224;2023-01-06T08:08:49;100113.81;;;10.93;100.00
70544;BME280;58097;48.364;-1.224;2023-01-06T08:11:15;100114.84;;;10.92;100.00
70544;BME280;58097;48.364;-1.224;2023-01-06T08:13:40;100115.16;;;10.89;100.00
70544;BME280;58097;48.364;-1.224;2023-01-06T08:16:07;100119.28;;;10.84;100.00
70544;BME280;58097;48.364;-1.224;2023-01-06T08:18:32;100126.56;;;10.85;100.00
70544;BME280;58097;48.364;-1.224;2023-01-06T08:21:02;100115.00;;;10.90;100.00
70544;BME280;58097;48.364;-1.224;2023-01-06T08:23:29;100122.13;;;10.93;100.00
70544;BME280;58097;48.364;-1.224;2023-01-06T08:28:30;100125.13;;;10.99;100.00
70544;BME280;58097;48.364;-1.224;2023-01-06T08:30:56;100119.44;;;11.01;100.00
70544;BME280;58097;48.364;-1.224;2023-01-06T08:33:22;100118.09;;;11.05;100.00
70544;BME280;58097;48.364;-1.224;2023-01-06T08:35:59;100118.59;;;11.00;100.00
70544;BME280;58097;48.364;-1.224;2023-01-06T08:38:25;100127.91;;;10.99;100.00
70544;BME280;58097;48.364;-1.224;2023-01-06T08:40:52;100126.13;;;10.98;100.00
70544;BME280;58097;48.364;-1.224;2023-01-06T08:43:17;100128.63;;;11.01;100.00
70544;BME280;58097;48.364;-1.224;2023-01-06T08:45:43;100142.13;;;11.04;100.00
70544;BME280;58097;48.364;-1.224;2023-01-06T08:48:08;100141.09;;;11.05;100.00
70544;BME280;58097;48.364;-1.224;2023-01-06T08:50:34;100137.13;;;11.08;100.00
70544;BME280;58097;48.364;-1.224;2023-01-06T08:52:59;100140.78;;;11.08;100.00
70544;BME280;58097;48.364;-1.224;2023-01-06T08:55:25;100140.59;;;11.10;100.00
70544;BME280;58097;48.364;-1.224;2023-01-06T08:57:50;100128.84;;;11.08;100.00
70544;BME280;58097;48.364;-1.224;2023-01-06T09:00:16;100143.00;;;11.05;100.00
70544;BME280;58097;48.364;-1.224;2023-01-06T09:02:41;100143.00;;;11.05;100.00
70544;BME280;58097;48.364;-1.224;2023-01-06T09:05:07;100136.59;;;11.04;100.00
70544;BME280;58097;48.364;-1.224;2023-01-06T09:07:32;100144.41;;;11.09;100.00
70544;BME280;58097;48.364;-1.224;2023-01-06T09:09:57;100128.69;;;11.09;100.00
70544;BME280;58097;48.364;-1.224;2023-01-06T09:12:23;100128.53;;;11.11;100.00
70544;BME280;58097;48.364;-1.224;2023-01-06T09:14:48;100131.28;;;11.11;100.00
70544;BME280;58097;48.364;-1.224;2023-01-06T09:17:14;100133.56;;;11.15;100.00
70544;BME280;58097;48.364;-1.224;2023-01-06T09:19:39;100132.84;;;11.13;100.00
70544;BME280;58097;48.364;-1.224;2023-01-06T09:22:05;100130.75;;;11.07;100.00
70544;BME280;58097;48.364;-1.224;2023-01-06T09:24:31;100124.50;;;11.05;100.00
70544;BME280;58097;48.364;-1.224;2023-01-06T09:26:56;100125.53;;;11.04;100.00
70544;BME280;58097;48.364;-1.224;2023-01-06T09:29:21;100130.56;;;11.09;100.00
70544;BME280;58097;48.364;-1.224;2023-01-06T09:31:47;100135.78;;;11.12;100.00
70544;BME280;58097;48.364;-1.224;2023-01-06T09:34:13;100141.88;;;11.15;100.00
70544;BME280;58097;48.364;-1.224;2023-01-06T09:36:39;100140.69;;;11.18;100.00
70544;BME280;58097;48.364;-1.224;2023-01-06T09:39:04;100137.91;;;11.18;100.00
70544;BME280;58097;48.364;-1.224;2023-01-06T09:41:42;100141.75;;;11.25;100.00
70544;BME280;58097;48.364;-1.224;2023-01-06T09:44:19;100142.63;;;11.26;100.00
70544;BME280;58097;48.364;-1.224;2023-01-06T09:46:49;100145.56;;;11.24;100.00
70544;BME280;58097;48.364;-1.224;2023-01-06T09:49:52;100137.09;;;11.26;99.89
70544;BME280;58097;48.364;-1.224;2023-01-06T09:52:41;100139.00;;;11.25;100.00
70544;BME280;58097;48.364;-1.224;2023-01-06T09:55:23;100147.00;;;11.28;100.00
70544;BME280;58097;48.364;-1.224;2023-01-06T09:58:05;100136.66;;;11.30;100.00
70544;BME280;58097;48.364;-1.224;2023-01-06T10:00:42;100147.38;;;11.33;100.00
70544;BME280;58097;48.364;-1.224;2023-01-06T10:09:07;100146.19;;;11.36;100.00
70544;BME280;58097;48.364;-1.224;2023-01-06T10:12:00;100150.00;;;11.35;100.00
70544;BME280;58097;48.364;-1.224;2023-01-06T10:14:43;100152.59;;;11.36;100.00
70544;BME280;58097;48.364;-1.224;2023-01-06T10:22:45;100151.63;;;11.45;100.00
70544;BME280;58097;48.364;-1.224;2023-01-06T10:25:18;100147.50;;;11.49;100.00
70544;BME280;58097;48.364;-1.224;2023-01-06T10:28:10;100155.03;;;11.57;100.00
70544;BME280;58097;48.364;-1.224;2023-01-06T10:30:48;100147.59;;;11.58;100.00
70544;BME280;58097;48.364;-1.224;2023-01-06T10:33:29;100149.84;;;11.62;100.00
70544;BME280;58097;48.364;-1.224;2023-01-06T10:35:56;100154.75;;;11.68;100.00
70544;BME280;58097;48.364;-1.224;2023-01-06T10:38:26;100153.38;;;11.72;100.00
70544;BME280;58097;48.364;-1.224;2023-01-06T10:40:55;100149.41;;;11.75;99.99
70544;BME280;58097;48.364;-1.224;2023-01-06T10:43:26;100146.09;;;11.71;99.71
70544;BME280;58097;48.364;-1.224;2023-01-06T10:45:53;100143.66;;;11.68;99.29
70544;BME280;58097;48.364;-1.224;2023-01-06T10:48:23;100139.88;;;11.69;99.85
70544;BME280;58097;48.364;-1.224;2023-01-06T10:50:49;100143.50;;;11.70;99.67
70544;BME280;58097;48.364;-1.224;2023-01-06T10:53:15;100144.38;;;11.70;99.88
70544;BME280;58097;48.364;-1.224;2023-01-06T10:55:46;100145.94;;;11.73;99.88
70544;BME280;58097;48.364;-1.224;2023-01-06T10:58:45;100140.41;;;11.73;100.00
70544;BME280;58097;48.364;-1.224;2023-01-06T11:01:22;100138.19;;;11.76;99.73
70544;BME280;58097;48.364;-1.224;2023-01-06T11:04:10;100132.00;;;11.83;99.70
70544;BME280;58097;48.364;-1.224;2023-01-06T11:06:39;100133.56;;;11.85;99.56
70544;BME280;58097;48.364;-1.224;2023-01-06T11:09:25;100120.31;;;11.89;99.64
70544;BME280;58097;48.364;-1.224;2023-01-06T11:11:52;100130.19;;;11.91;99.36
70544;BME280;58097;48.364;-1.224;2023-01-06T11:14:21;100122.41;;;11.95;99.59
70544;BME280;58097;48.364;-1.224;2023-01-06T11:16:55;100132.28;;;11.97;99.32
70544;BME280;58097;48.364;-1.224;2023-01-06T11:19:30;100126.41;;;12.00;99.54
70544;BME280;58097;48.364;-1.224;2023-01-06T11:21:57;100128.81;;;11.95;99.55
70544;BME280;58097;48.364;-1.224;2023-01-06T11:24:24;100125.88;;;11.97;99.57
70544;BME280;58097;48.364;-1.224;2023-01-06T11:26:59;100126.00;;;11.87;99.30
70544;BME280;58097;48.364;-1.224;2023-01-06T11:29:34;100116.81;;;11.87;99.59
70544;BME280;58097;48.364;-1.224;2023-01-06T11:32:10;100120.47;;;11.87;100.00
70544;BME280;58097;48.364;-1.224;2023-01-06T11:34:37;100124.97;;;11.88;100.00
70544;BME280;58097;48.364;-1.224;2023-01-06T11:37:03;100114.75;;;11.89;100.00
70544;BME280;58097;48.364;-1.224;2023-01-06T11:39:34;100109.91;;;11.91;100.00
70544;BME280;58097;48.364;-1.224;2023-01-06T11:42:09;100110.97;;;11.90;100.00
70544;BME280;58097;48.364;-1.224;2023-01-06T11:44:38;100113.72;;;11.90;100.00
70544;BME280;58097;48.364;-1.224;2023-01-06T11:47:15;100112.34;;;11.94;100.00
70544;BME280;58097;48.364;-1.224;2023-01-06T11:49:47;100105.25;;;11.91;100.00
70544;BME280;58097;48.364;-1.224;2023-01-06T11:54:42;100106.44;;;11.89;100.00
70544;BME280;58097;48.364;-1.224;2023-01-06T12:11:09;100095.47;;;11.79;100.00
70544;BME280;58097;48.364;-1.224;2023-01-06T12:13:37;100100.28;;;11.77;100.00
70544;BME280;58097;48.364;-1.224;2023-01-06T12:16:06;100083.84;;;11.75;100.00
70544;BME280;58097;48.364;-1.224;2023-01-06T12:18:38;100082.50;;;11.79;100.00
70544;BME280;58097;48.364;-1.224;2023-01-06T12:21:07;100087.47;;;11.76;100.00
70544;BME280;58097;48.364;-1.224;2023-01-06T12:23:38;100086.06;;;11.72;100.00
70544;BME280;58097;48.364;-1.224;2023-01-06T12:26:13;100084.00;;;11.74;100.00
70544;BME280;58097;48.364;-1.224;2023-01-06T12:28:42;100077.44;;;11.75;100.00
70544;BME280;58097;48.364;-1.224;2023-01-06T12:31:58;100071.41;;;11.79;100.00
70544;BME280;58097;48.364;-1.224;2023-01-06T12:34:08;100067.78;;;11.79;100.00
70544;BME280;58097;48.364;-1.224;2023-01-06T12:36:44;100068.50;;;11.81;100.00
70544;BME280;58097;48.364;-1.224;2023-01-06T12:39:42;100064.69;;;11.82;100.00
70544;BME280;58097;48.364;-1.224;2023-01-06T12:42:24;100054.31;;;11.84;100.00
70544;BME280;58097;48.364;-1.224;2023-01-06T12:44:56;100054.31;;;11.84;100.00
70544;BME280;58097;48.364;-1.224;2023-01-06T12:50:16;100058.09;;;11.83;100.00
70544;BME280;58097;48.364;-1.224;2023-01-06T12:52:53;100053.44;;;11.84;100.00
70544;BME280;58097;48.364;-1.224;2023-01-06T12:55:51;100053.28;;;11.85;100.00
70544;BME280;58097;48.364;-1.224;2023-01-06T13:01:04;100054.16;;;11.86;100.00
70544;BME280;58097;48.364;-1.224;2023-01-06T13:03:40;100044.25;;;11.83;100.00
70544;BME280;58097;48.364;-1.224;2023-01-06T13:06:30;100046.16;;;11.83;100.00
70544;BME280;58097;48.364;-1.224;2023-01-06T13:09:04;100044.25;;;11.83;100.00
70544;BME280;58097;48.364;-1.224;2023-01-06T13:14:23;100026.25;;;11.79;100.00
70544;BME280;58097;48.364;-1.224;2023-01-06T13:19:53;100030.53;;;11.73;100.00
70544;BME280;58097;48.364;-1.224;2023-01-06T13:36:47;100008.88;;;11.69;100.00
70544;BME280;58097;48.364;-1.224;2023-01-06T13:38:57;99994.69;;;11.64;100.00
70544;BME280;58097;48.364;-1.224;2023-01-06T13:41:44;99998.31;;;11.64;100.00
70544;BME280;58097;48.364;-1.224;2023-01-06T13:44:20;100005.75;;;11.64;100.00
70544;BME280;58097;48.364;-1.224;2023-01-06T13:46:49;100000.56;;;11.69;100.00
70544;BME280;58097;48.364;-1.224;2023-01-06T13:49:16;99996.44;;;11.73;100.00
70544;BME280;58097;48.364;-1.224;2023-01-06T13:51:41;99989.88;;;11.74;100.00
70544;BME280;58097;48.364;-1.224;2023-01-06T13:57:37;99985.19;;;11.74;100.00
70544;BME280;58097;48.364;-1.224;2023-01-06T14:12:54;99956.28;;;11.69;100.00
70544;BME280;58097;48.364;-1.224;2023-01-06T14:15:26;99946.44;;;11.74;100.00
70544;BME280;58097;48.364;-1.224;2023-01-06T14:17:52;99952.66;;;11.76;100.00
70544;BME280;58097;48.364;-1.224;2023-01-06T14:20:36;99949.03;;;11.76;100.00